Time;durP1;ratioP1;P1;durP2;ratioP2;P2;SDS_P1;SDS_P2;PMS_P1;PMS_P2;Temp;Humidity;BMP_temperature;BMP_pressure;BME280_temperature;BME280_humidity;BME280_pressure;Samples;Min_cycle;Max_cycle;Signal;HPM_P1;HPM_P2
2022/11/23 00:01:46;;;;;;;;;;;9.10;99.90;;;;;;6272807;22;19903;-81
2022/11/23 00:04:12;;;;;;;;;;;9.10;99.90;;;;;;6272638;22;19921;-82
2022/11/23 00:06:38;;;;;;;;;;;9.10;99.90;;;;;;6272763;22;19935;-81
2022/11/23 00:09:04;;;;;;;;;;;9.20;99.90;;;;;;6272914;22;19903;-82
2022/11/23 00:11:29;;;;;;;;;;;9.20;99.90;;;;;;6245565;22;20240;-79
2022/11/23 00:13:55;;;;;;;;;;;9.10;99.90;;;;;;6273766;22;19910;-82
2022/11/23 00:16:25;;;;;;;;;;;9.10;99.90;;;;;;6272614;22;19907;-81
2022/11/23 00:18:55;;;;;;;;;;;9.10;99.90;;;;;;6272554;22;19918;-81
2022/11/23 00:21:21;;;;;;;;;;;9.20;99.90;;;;;;6272401;22;19914;-81
2022/11/23 00:23:46;;;;;;;;;;;9.50;99.90;;;;;;6272323;22;19911;-81
2022/11/23 00:26:13;;;;;;;;;;;9.10;99.90;;;;;;6272646;22;19907;-82
2022/11/23 00:28:39;;;;;;;;;;;9.10;99.90;;;;;;6272515;22;19972;-82
2022/11/23 00:31:08;;;;;;;;;;;9.20;99.90;;;;;;6272719;22;19910;-82
2022/11/23 00:33:34;;;;;;;;;;;9.20;99.90;;;;;;6272431;22;19903;-81
2022/11/23 00:36:00;;;;;;;;;;;9.20;99.90;;;;;;6273476;22;19929;-80
2022/11/23 00:38:25;;;;;;;;;;;9.20;99.90;;;;;;6272536;22;19903;-81
2022/11/23 00:40:56;;;;;;;;;;;9.20;99.90;;;;;;6271952;22;20233;-82
2022/11/23 00:43:21;;;;;;;;;;;9.20;99.90;;;;;;6272362;22;19972;-82
2022/11/23 00:45:49;;;;;;;;;;;9.30;99.90;;;;;;6245101;22;19961;-81
2022/11/23 00:48:15;;;;;;;;;;;9.10;99.90;;;;;;6272090;22;19985;-81
2022/11/23 00:50:40;;;;;;;;;;;9.20;99.90;;;;;;6245166;22;19939;-81
2022/11/23 00:53:06;;;;;;;;;;;9.20;99.90;;;;;;6272037;22;19910;-81
2022/11/23 00:55:31;;;;;;;;;;;9.20;99.90;;;;;;6273044;22;19979;-80
2022/11/23 00:57:57;;;;;;;;;;;9.00;99.90;;;;;;6273388;22;19907;-82
2022/11/23 01:00:22;;;;;;;;;;;9.30;99.90;;;;;;6272160;22;19925;-81
2022/11/23 01:02:48;;;;;;;;;;;9.30;99.90;;;;;;6272055;22;19918;-82
2022/11/23 01:05:13;;;;;;;;;;;9.30;99.90;;;;;;6272071;22;19907;-81
2022/11/23 01:07:39;;;;;;;;;;;9.50;99.90;;;;;;6271966;22;19914;-82
2022/11/23 01:10:05;;;;;;;;;;;9.30;99.90;;;;;;6272190;22;19903;-82
2022/11/23 01:12:30;;;;;;;;;;;9.30;99.90;;;;;;6273152;22;19903;-81
2022/11/23 01:14:56;;;;;;;;;;;9.30;99.90;;;;;;6272091;22;19903;-81
2022/11/23 01:17:21;;;;;;;;;;;9.50;99.90;;;;;;6272174;22;19904;-82
2022/11/23 01:19:46;;;;;;;;;;;9.40;99.90;;;;;;6271901;22;19938;-82
2022/11/23 01:22:12;;;;;;;;;;;9.90;99.90;;;;;;6271796;22;19935;-81
2022/11/23 01:24:37;;;;;;;;;;;9.40;99.90;;;;;;6272100;22;20307;-82
2022/11/23 01:27:03;;;;;;;;;;;9.50;99.90;;;;;;6272552;22;19903;-80
2022/11/23 01:29:28;;;;;;;;;;;9.50;99.90;;;;;;6272968;22;19904;-82
2022/11/23 01:31:54;;;;;;;;;;;9.50;99.90;;;;;;6271839;22;20248;-83
2022/11/23 01:34:19;;;;;;;;;;;9.50;99.90;;;;;;6271867;22;19903;-81
2022/11/23 01:36:45;;;;;;;;;;;9.50;99.90;;;;;;6271830;22;19927;-81
2022/11/23 01:39:11;;;;;;;;;;;9.50;99.90;;;;;;6271530;22;20342;-81
2022/11/23 01:41:40;;;;;;;;;;;9.60;99.90;;;;;;6272110;22;19910;-82
2022/11/23 01:44:24;;;;;;;;;;;9.50;99.90;;;;;;6271772;22;20363;-81
2022/11/23 01:46:50;;;;;;;;;;;9.40;99.90;;;;;;6272067;22;19934;-82
2022/11/23 01:49:15;;;;;;;;;;;9.50;99.90;;;;;;6271787;22;19910;-82
2022/11/23 01:51:43;;;;;;;;;;;9.50;99.90;;;;;;6271622;22;20287;-82
2022/11/23 01:54:12;;;;;;;;;;;9.60;99.90;;;;;;6271898;22;20340;-81
2022/11/23 01:56:40;;;;;;;;;;;9.50;99.90;;;;;;6271761;22;19910;-81
2022/11/23 01:59:08;;;;;;;;;;;9.60;99.90;;;;;;6272415;22;19910;-82
2022/11/23 02:01:33;;;;;;;;;;;9.90;99.90;;;;;;6274748;22;19972;-81
2022/11/23 02:04:00;;;;;;;;;;;9.50;99.90;;;;;;6273609;22;20291;-82
2022/11/23 02:06:25;;;;;;;;;;;9.50;99.90;;;;;;6247036;22;20241;-81
2022/11/23 02:08:51;;;;;;;;;;;9.50;99.90;;;;;;6273847;22;20398;-82
2022/11/23 02:11:16;;;;;;;;;;;9.50;99.90;;;;;;6273783;22;20236;-82
2022/11/23 02:13:43;;;;;;;;;;;9.50;99.90;;;;;;6273756;22;19907;-80
2022/11/23 02:16:09;;;;;;;;;;;9.50;99.90;;;;;;6273464;22;19957;-81
2022/11/23 02:18:35;;;;;;;;;;;9.60;99.90;;;;;;6274500;22;19904;-81
2022/11/23 02:21:02;;;;;;;;;;;9.50;99.90;;;;;;6274685;22;19907;-81
2022/11/23 02:23:33;;;;;;;;;;;9.50;99.90;;;;;;6273694;22;20237;-81
2022/11/23 02:26:01;;;;;;;;;;;9.50;99.90;;;;;;6273573;22;19903;-81
2022/11/23 02:28:32;;;;;;;;;;;9.50;99.90;;;;;;6273487;22;20133;-80
2022/11/23 02:30:59;;;;;;;;;;;9.50;99.90;;;;;;6273444;22;19911;-80
2022/11/23 02:33:24;;;;;;;;;;;9.50;99.90;;;;;;6273681;22;19903;-81
2022/11/23 02:35:51;;;;;;;;;;;9.50;99.90;;;;;;6273629;22;19904;-81
2022/11/23 02:38:17;;;;;;;;;;;9.40;99.90;;;;;;6273504;22;19904;-80
2022/11/23 02:40:42;;;;;;;;;;;9.50;99.90;;;;;;6273386;22;19964;-81
2022/11/23 02:43:08;;;;;;;;;;;9.50;99.90;;;;;;6273342;22;20233;-81
2022/11/23 02:45:33;;;;;;;;;;;9.40;99.90;;;;;;6274286;22;19903;-81
2022/11/23 02:47:59;;;;;;;;;;;9.50;99.90;;;;;;6273433;22;19934;-81
2022/11/23 02:50:24;;;;;;;;;;;9.50;99.90;;;;;;6273441;22;19990;-80
2022/11/23 02:52:50;;;;;;;;;;;9.50;99.90;;;;;;6273434;22;19903;-81
2022/11/23 02:55:15;;;;;;;;;;;9.50;99.90;;;;;;6273246;22;20349;-81
2022/11/23 02:57:41;;;;;;;;;;;9.50;99.90;;;;;;6273316;22;20294;-80
2022/11/23 03:00:07;;;;;;;;;;;9.50;99.90;;;;;;6274273;22;20217;-79
2022/11/23 03:02:32;;;;;;;;;;;9.50;99.90;;;;;;6246207;22;19907;-82
2022/11/23 03:04:58;;;;;;;;;;;9.50;99.90;;;;;;6273314;22;20479;-82
2022/11/23 03:07:23;;;;;;;;;;;9.50;99.90;;;;;;6273373;22;19910;-82
2022/11/23 03:09:49;;;;;;;;;;;9.60;99.90;;;;;;6273084;22;20307;-82
2022/11/23 03:12:15;;;;;;;;;;;9.60;99.90;;;;;;6273077;22;19903;-81
2022/11/23 03:14:41;;;;;;;;;;;9.60;99.90;;;;;;6273132;22;19903;-81
2022/11/23 03:17:06;;;;;;;;;;;9.50;99.90;;;;;;6274269;22;19903;-80
2022/11/23 03:19:32;;;;;;;;;;;9.50;99.90;;;;;;6273156;22;19910;-80
2022/11/23 03:21:57;;;;;;;;;;;9.60;99.90;;;;;;6273291;22;20240;-81
2022/11/23 03:24:23;;;;;;;;;;;9.60;99.90;;;;;;6272913;22;19919;-80
2022/11/23 03:26:48;;;;;;;;;;;9.50;99.90;;;;;;6273109;22;20235;-80
2022/11/23 03:29:14;;;;;;;;;;;9.60;99.90;;;;;;6272948;22;19910;-80
2022/11/23 03:31:39;;;;;;;;;;;9.60;99.90;;;;;;6273904;22;19908;-80
2022/11/23 03:34:05;;;;;;;;;;;9.60;99.90;;;;;;6273341;22;19903;-81
2022/11/23 03:36:31;;;;;;;;;;;9.60;99.90;;;;;;6273050;22;19986;-80
2022/11/23 03:38:56;;;;;;;;;;;9.70;99.90;;;;;;6272929;22;19903;-80
2022/11/23 03:41:22;;;;;;;;;;;9.70;99.90;;;;;;6273006;22;19911;-81
2022/11/23 03:43:47;;;;;;;;;;;9.70;99.90;;;;;;6272768;22;19943;-82
2022/11/23 03:46:13;;;;;;;;;;;9.70;99.90;;;;;;6272713;22;20251;-82
2022/11/23 03:48:38;;;;;;;;;;;9.60;99.90;;;;;;6274017;22;19903;-83
2022/11/23 03:51:04;;;;;;;;;;;9.70;99.90;;;;;;6271887;22;19957;-81
2022/11/23 03:53:29;;;;;;;;;;;9.70;99.90;;;;;;6272755;22;19982;-82
2022/11/23 03:55:56;;;;;;;;;;;9.70;99.90;;;;;;6272682;22;19903;-81
2022/11/23 03:58:22;;;;;;;;;;;9.70;99.90;;;;;;6272403;22;20290;-82
2022/11/23 04:00:47;;;;;;;;;;;9.80;99.90;;;;;;6272441;22;19903;-81
2022/11/23 04:03:13;;;;;;;;;;;9.70;99.90;;;;;;6272572;22;19946;-82
2022/11/23 04:05:38;;;;;;;;;;;9.70;99.90;;;;;;6273757;22;19909;-82
2022/11/23 04:08:04;;;;;;;;;;;9.70;99.90;;;;;;6245355;22;19904;-82
2022/11/23 04:10:29;;;;;;;;;;;9.70;99.90;;;;;;6272485;22;19903;-81
2022/11/23 04:12:55;;;;;;;;;;;9.80;99.90;;;;;;6272508;22;19965;-82
2022/11/23 04:15:21;;;;;;;;;;;;;;;;;;6279172;22;19942;-87
2022/11/23 04:17:46;;;;;;;;;;;;;;;;;;6259937;22;19904;-87
2022/11/23 04:20:13;;;;;;;;;;;;;;;;;;6288046;22;19914;-87
2022/11/23 04:22:39;;;;;;;;;;;;;;;;;;6287228;22;19911;-89
2022/11/23 04:25:05;;;;;;;;;;;;;;;;;;6259218;22;19903;-89
2022/11/23 04:27:31;;;;;;;;;;;;;;;;;;6301740;22;19903;-87
2022/11/23 04:29:57;;;;;;;;;;;;;;;;;;6302830;22;19914;-91
2022/11/23 04:32:24;;;;;;;;;;;;;;;;;;6293369;22;19915;-88
2022/11/23 04:34:50;;;;;;;;;;;;;;;;;;6298606;22;19904;-92
2022/11/23 04:37:16;;;;;;;;;;;;;;;;;;6287016;22;19904;-90
2022/11/23 04:39:45;;;;;;;;;;;;;;;;;;6288800;22;19922;-87
2022/11/23 04:42:11;;;;;;;;;;;;;;;;;;6295461;22;19910;-88
2022/11/23 04:44:37;;;;;;;;;;;;;;;;;;6285687;22;19903;-92
2022/11/23 04:47:02;;;;;;;;;;;;;;;;;;6276595;22;19907;-88
2022/11/23 04:49:28;;;;;;;;;;;;;;;;;;6274347;22;20243;-90
2022/11/23 04:51:54;;;;;;;;;;;;;;;;;;6275433;22;19909;-89
2022/11/23 04:54:20;;;;;;;;;;;;;;;;;;6281773;22;19947;-91
2022/11/23 04:56:46;;;;;;;;;;;;;;;;;;6276480;22;20321;-86
2022/11/23 04:59:12;;;;;;;;;;;;;;;;;;6285439;22;19938;-91
2022/11/23 05:01:38;;;;;;;;;;;;;;;;;;6286716;22;19903;-93
2022/11/23 05:04:04;;;;;;;;;;;;;;;;;;6273545;22;19911;-86
2022/11/23 05:06:30;;;;;;;;;;;;;;;;;;6266716;22;19910;-88
2022/11/23 05:08:56;;;;;;;;;;;;;;;;;;6298073;22;19931;-89
2022/11/23 05:11:42;;;;;;;;;;;;;;;;;;6279280;22;19911;-87
2022/11/23 05:14:08;;;;;;;;;;;;;;;;;;6272231;22;20286;-94
2022/11/23 05:16:34;;;;;;;;;;;;;;;;;;6245239;22;19903;-94
2022/11/23 05:19:00;;;;;;;;;;;;;;;;;;6273785;22;19957;-91
2022/11/23 05:21:26;;;;;;;;;;;;;;;;;;6264289;22;19903;-87
2022/11/23 05:23:51;;;;;;;;;;;;;;;;;;6269894;22;19997;-88
2022/11/23 05:26:17;;;;;;;;;;;;;;;;;;6297168;22;19888;-88
2022/11/23 05:28:43;;;;;;;;;;;;;;;;;;6299355;22;19903;-89
2022/11/23 05:31:09;;;;;;;;;;;;;;;;;;6293043;22;19910;-93
2022/11/23 05:33:35;;;;;;;;;;;;;;;;;;6282216;22;19903;-91
2022/11/23 05:36:02;;;;;;;;;;;;;;;;;;6282152;22;19926;-94
2022/11/23 05:38:28;;;;;;;;;;;;;;;;;;6289661;22;20371;-93
2022/11/23 05:40:54;;;;;;;;;;;;;;;;;;6271937;22;19918;-93
2022/11/23 05:43:22;;;;;;;;;;;;;;;;;;6278137;22;19907;-90
2022/11/23 05:45:50;;;;;;;;;;;;;;;;;;6292213;22;19903;-89
2022/11/23 05:48:21;;;;;;;;;;;;;;;;;;6288474;22;19979;-91
2022/11/23 05:50:50;;;;;;;;;;;;;;;;;;6283596;22;19926;-91
2022/11/23 05:53:16;;;;;;;;;;;;;;;;;;6282342;22;19903;-91
2022/11/23 05:55:42;;;;;;;;;;;;;;;;;;6288343;22;19907;-88
2022/11/23 05:58:11;;;;;;;;;;;;;;;;;;6290690;22;19907;-93
2022/11/23 06:00:37;;;;;;;;;;;;;;;;;;6275320;22;19904;-92
2022/11/23 06:03:06;;;;;;;;;;;;;;;;;;6284007;22;19915;-89
2022/11/23 06:05:52;;;;;;;;;;;;;;;;;;6258976;23;20255;-89
2022/11/23 06:08:18;;;;;;;;;;;;;;;;;;6243861;23;19954;-86
2022/11/23 06:10:44;;;;;;;;;;;;;;;;;;6243589;23;19904;-89
2022/11/23 06:13:09;;;;;;;;;;;;;;;;;;6241554;23;19911;-89
2022/11/23 06:15:35;;;;;;;;;;;;;;;;;;6240055;23;19972;-91
2022/11/23 06:18:01;;;;;;;;;;;;;;;;;;6238870;23;19903;-91
2022/11/23 06:20:27;;;;;;;;;;;;;;;;;;6239538;23;19935;-91
2022/11/23 06:22:53;;;;;;;;;;;;;;;;;;6239757;23;20002;-91
2022/11/23 06:25:19;;;;;;;;;;;;;;;;;;6239341;23;19908;-88
2022/11/23 06:27:45;;;;;;;;;;;;;;;;;;6240263;23;19991;-91
2022/11/23 06:30:11;;;;;;;;;;;;;;;;;;6239620;23;19907;-91
2022/11/23 06:32:37;;;;;;;;;;;;;;;;;;6214919;23;19904;-89
2022/11/23 06:35:03;;;;;;;;;;;;;;;;;;6240021;23;20340;-88
2022/11/23 06:37:29;;;;;;;;;;;;;;;;;;6265946;22;19903;-87
2022/11/23 06:39:55;;;;;;;;;;;;;;;;;;6272252;22;19965;-89
2022/11/23 06:42:20;;;;;;;;;;;;;;;;;;6272695;22;20217;-92
2022/11/23 06:44:46;;;;;;;;;;;;;;;;;;6273431;22;19907;-91
2022/11/23 06:47:12;;;;;;;;;;;;;;;;;;6273732;22;19907;-89
2022/11/23 06:49:38;;;;;;;;;;;;;;;;;;6274048;22;20218;-91
2022/11/23 06:52:04;;;;;;;;;;;;;;;;;;6273717;22;19907;-87
2022/11/23 06:54:30;;;;;;;;;;;;;;;;;;6273646;22;19903;-91
2022/11/23 06:56:56;;;;;;;;;;;;;;;;;;6273667;22;19990;-88
2022/11/23 06:59:22;;;;;;;;;;;;;;;;;;6273769;22;19986;-88
2022/11/23 07:01:49;;;;;;;;;;;;;;;;;;6247565;22;19911;-89
2022/11/23 07:04:15;;;;;;;;;;;;;;;;;;6246467;22;20240;-87
2022/11/23 07:06:41;;;;;;;;;;;;;;;;;;6246447;22;20106;-90
2022/11/23 07:09:08;;;;;;;;;;;;;;;;;;6273313;22;19950;-87
2022/11/23 07:11:34;;;;;;;;;;;;;;;;;;6273333;22;19910;-93
2022/11/23 07:14:00;;;;;;;;;;;;;;;;;;6246159;22;19903;-90
2022/11/23 07:16:25;;;;;;;;;;;;;;;;;;6273204;22;19903;-89
2022/11/23 07:18:51;;;;;;;;;;;;;;;;;;6274426;22;19907;-89
2022/11/23 07:21:17;;;;;;;;;;;;;;;;;;6274451;22;19903;-88
2022/11/23 07:23:43;;;;;;;;;;;;;;;;;;6273151;22;20002;-89
2022/11/23 07:26:09;;;;;;;;;;;;;;;;;;6273146;22;19903;-86
2022/11/23 07:28:35;;;;;;;;;;;;;;;;;;6273296;22;19910;-87
2022/11/23 07:31:01;;;;;;;;;;;;;;;;;;6273314;22;19996;-90
2022/11/23 07:33:27;;;;;;;;;;;;;;;;;;6273604;22;19911;-93
2022/11/23 07:35:53;;;;;;;;;;;;;;;;;;6274479;22;19914;-86
2022/11/23 07:38:19;;;;;;;;;;;;;;;;;;6275021;22;19907;-94
2022/11/23 07:40:44;;;;;;;;;;;;;;;;;;6273821;22;19975;-94
2022/11/23 07:43:10;;;;;;;;;;;;;;;;;;6273534;22;20229;-95
2022/11/23 07:45:37;;;;;;;;;;;;;;;;;;6273646;22;19911;-91
2022/11/23 07:48:03;;;;;;;;;;;;;;;;;;6273797;22;19942;-94
2022/11/23 07:50:29;;;;;;;;;;;;;;;;;;6246743;22;19904;-93
2022/11/23 07:52:55;;;;;;;;;;;;;;;;;;6273715;22;20239;-91
2022/11/23 07:55:21;;;;;;;;;;;;;;;;;;6274526;22;19964;-92
2022/11/23 07:57:46;;;;;;;;;;;;;;;;;;6274229;22;20337;-94
2022/11/23 08:00:12;;;;;;;;;;;;;;;;;;6282071;22;19907;-92
2022/11/23 08:02:38;;;;;;;;;;;;;;;;;;6254898;22;19908;-91
2022/11/23 08:05:04;;;;;;;;;;;;;;;;;;6281992;22;19913;-94
2022/11/23 08:07:30;;;;;;;;;;;;;;;;;;6279099;22;19903;-92
2022/11/23 08:09:56;;;;;;;;;;;;;;;;;;6249364;22;19910;-93
2022/11/23 08:12:22;;;;;;;;;;;;;;;;;;6276536;22;19903;-92
2022/11/23 08:14:48;;;;;;;;;;;;;;;;;;6280685;22;20393;-94
2022/11/23 08:17:14;;;;;;;;;;;;;;;;;;6274581;22;19957;-95
2022/11/23 08:19:39;;;;;;;;;;;;;;;;;;6273875;22;19903;-95
2022/11/23 08:22:05;;;;;;;;;;;;;;;;;;6273580;22;20324;-95
2022/11/23 08:24:31;;;;;;;;;;;;;;;;;;6274974;22;19919;-96
2022/11/23 08:26:57;;;;;;;;;;;;;;;;;;6251259;22;19903;-94
2022/11/23 08:29:23;;;;;;;;;;;;;;;;;;6275422;22;20328;-94
2022/11/23 08:31:49;;;;;;;;;;;;;;;;;;6273916;22;19911;-94
2022/11/23 08:34:16;;;;;;;;;;;;;;;;;;6279184;22;19976;-95
2022/11/23 08:36:42;;;;;;;;;;;;;;;;;;6278784;22;19982;-93
2022/11/23 08:39:10;;;;;;;;;;;;;;;;;;6282128;22;20332;-93
2022/11/23 08:41:35;;;;;;;;;;;;;;;;;;6284484;22;19910;-93
2022/11/23 08:44:01;;;;;;;;;;;;;;;;;;6281744;22;20251;-95
2022/11/23 08:46:27;;;;;;;;;;;;;;;;;;6277674;22;19903;-88
2022/11/23 08:48:53;;;;;;;;;;;;;;;;;;6281029;22;19907;-92
2022/11/23 08:51:21;;;;;;;;;;;;;;;;;;6281218;22;19907;-93
2022/11/23 08:53:47;;;;;;;;;;;;;;;;;;6281765;22;19941;-91
2022/11/23 08:56:13;;;;;;;;;;;;;;;;;;6275922;22;19923;-95
2022/11/23 08:58:39;;;;;;;;;;;;;;;;;;6272796;22;19909;-90
2022/11/23 09:01:06;;;;;;;;;;;;;;;;;;6277325;22;19904;-89
2022/11/23 09:03:34;;;;;;;;;;;;;;;;;;6290800;22;19955;-95
2022/11/23 09:06:00;;;;;;;;;;;;;;;;;;6262093;22;20378;-89
2022/11/23 09:08:26;;;;;;;;;;;;;;;;;;6287604;22;20324;-88
2022/11/23 09:10:52;;;;;;;;;;;;;;;;;;6290096;22;19938;-87
2022/11/23 09:13:19;;;;;;;;;;;;;;;;;;6285547;22;20188;-93
2022/11/23 09:15:45;;;;;;;;;;;;;;;;;;6287186;22;20287;-92
2022/11/23 09:18:11;;;;;;;;;;;;;;;;;;6288079;22;19952;-88
2022/11/23 09:20:38;;;;;;;;;;;;;;;;;;6289064;22;19947;-94
2022/11/23 09:23:06;;;;;;;;;;;;;;;;;;6279731;22;19962;-87
2022/11/23 09:25:31;;;;;;;;;;;;;;;;;;6279985;22;19927;-91
2022/11/23 09:27:58;;;;;;;;;;;;;;;;;;6277150;22;19910;-92
2022/11/23 09:30:24;;;;;;;;;;;;;;;;;;6279278;22;19951;-89
2022/11/23 09:32:50;;;;;;;;;;;;;;;;;;6286437;22;19904;-87
2022/11/23 09:35:17;;;;;;;;;;;;;;;;;;6284080;22;19908;-94
2022/11/23 09:37:43;;;;;;;;;;;;;;;;;;6284711;22;19914;-90
2022/11/23 09:40:09;;;;;;;;;;;;;;;;;;6285253;22;19912;-87
2022/11/23 09:42:35;;;;;;;;;;;;;;;;;;6283984;22;19910;-94
2022/11/23 09:45:01;;;;;;;;;;;;;;;;;;6285181;22;19932;-91
2022/11/23 09:47:28;;;;;;;;;;;;;;;;;;6288198;22;19932;-88
2022/11/23 09:49:54;;;;;;;;;;;;;;;;;;6283762;22;19950;-91
2022/11/23 09:52:21;;;;;;;;;;;;;;;;;;6257118;22;19907;-86
2022/11/23 09:54:47;;;;;;;;;;;;;;;;;;6288813;22;19903;-88
2022/11/23 09:57:13;;;;;;;;;;;;;;;;;;6257239;22;19947;-90
2022/11/23 09:59:39;;;;;;;;;;;;;;;;;;6282185;22;19907;-86
2022/11/23 10:02:05;;;;;;;;;;;;;;;;;;6283520;22;19907;-89
2022/11/23 10:04:31;;;;;;;;;;;;;;;;;;6286299;22;19918;-91
2022/11/23 10:06:58;;;;;;;;;;;;;;;;;;6288458;22;19904;-86
2022/11/23 10:09:24;;;;;;;;;;;;;;;;;;6255244;22;19939;-90
2022/11/23 10:11:50;;;;;;;;;;;;;;;;;;6285535;22;20196;-86
2022/11/23 10:14:16;;;;;;;;;;;;;;;;;;6287035;22;19904;-87
2022/11/23 10:16:42;;;;;;;;;;;;;;;;;;6284900;22;19974;-91
2022/11/23 10:19:08;;;;;;;;;;;;;;;;;;6283961;22;19964;-86
2022/11/23 10:21:34;;;;;;;;;;;;;;;;;;6285948;22;19938;-86
2022/11/23 10:24:00;;;;;;;;;;;;;;;;;;6287246;22;19911;-89
2022/11/23 10:26:26;;;;;;;;;;;;;;;;;;6287528;22;19904;-86
2022/11/23 10:28:52;;;;;;;;;;;;;;;;;;6282445;22;19907;-87
2022/11/23 10:31:20;;;;;;;;;;;;;;;;;;6281706;22;19904;-86
2022/11/23 10:33:47;;;;;;;;;;;;;;;;;;6284135;22;19907;-88
2022/11/23 10:36:15;;;;;;;;;;;;;;;;;;6289219;22;19926;-86
2022/11/23 10:38:41;;;;;;;;;;;;;;;;;;6289697;22;19908;-86
2022/11/23 10:41:06;;;;;;;;;;;;;;;;;;6288029;22;19911;-85
2022/11/23 10:43:38;;;;;;;;;;;;;;;;;;6289381;22;19933;-85
2022/11/23 10:46:04;;;;;;;;;;;;;;;;;;6289431;22;19951;-85
2022/11/23 10:48:30;;;;;;;;;;;;;;;;;;6287964;22;19908;-87
2022/11/23 10:50:56;;;;;;;;;;;;;;;;;;6285389;22;19903;-86
2022/11/23 10:53:27;;;;;;;;;;;;;;;;;;6278404;22;19946;-88
2022/11/23 10:55:56;;;;;;;;;;;;;;;;;;6281013;22;19945;-86
2022/11/23 10:58:23;;;;;;;;;;;;;;;;;;6281575;22;19946;-86
2022/11/23 11:00:49;;;;;;;;;;;;;;;;;;6281898;22;19954;-88
2022/11/23 11:03:16;;;;;;;;;;;;;;;;;;6254898;22;19953;-85
2022/11/23 11:05:42;;;;;;;;;;;;;;;;;;6287023;22;19914;-90
2022/11/23 11:08:09;;;;;;;;;;;;;;;;;;6283513;22;19903;-87
2022/11/23 11:10:35;;;;;;;;;;;;;;;;;;6280641;22;19907;-85
2022/11/23 11:13:00;;;;;;;;;;;;;;;;;;6256545;22;19976;-89
2022/11/23 11:15:27;;;;;;;;;;;;;;;;;;6286551;22;19935;-90
2022/11/23 11:17:53;;;;;;;;;;;;;;;;;;6287226;22;19907;-90
2022/11/23 11:20:19;;;;;;;;;;;;;;;;;;6286362;22;20256;-86
2022/11/23 11:22:45;;;;;;;;;;;;;;;;;;6283038;22;19907;-86
2022/11/23 11:25:11;;;;;;;;;;;;;;;;;;6283511;22;19907;-85
2022/11/23 11:27:37;;;;;;;;;;;;;;;;;;6293864;22;19925;-86
2022/11/23 11:30:05;;;;;;;;;;;;;;;;;;6298172;22;19907;-91
2022/11/23 11:32:30;;;;;;;;;;;;;;;;;;6300417;22;19954;-91
2022/11/23 11:34:56;;;;;;;;;;;;;;;;;;6297160;22;19903;-93
2022/11/23 11:37:25;;;;;;;;;;;;;;;;;;6289934;22;19888;-89
2022/11/23 11:39:51;;;;;;;;;;;;;;;;;;6301924;22;19895;-85
2022/11/23 11:42:18;;;;;;;;;;;;;;;;;;6272040;22;19903;-86
2022/11/23 11:44:43;;;;;;;;;;;;;;;;;;6296496;22;19927;-86
2022/11/23 11:47:09;;;;;;;;;;;;;;;;;;6299761;22;19910;-85
2022/11/23 11:49:38;;;;;;;;;;;;;;;;;;6275675;22;19916;-86
2022/11/23 11:52:04;;;;;;;;;;;;;;;;;;6300528;22;19908;-85
2022/11/23 11:54:30;;;;;;;;;;;;;;;;;;6295915;22;19888;-88
2022/11/23 11:56:56;;;;;;;;;;;;;;;;;;6295444;22;20122;-86
2022/11/23 11:59:22;;;;;;;;;;;;;;;;;;6266875;22;19910;-87
2022/11/23 12:01:51;;;;;;;;;;;;;;;;;;6295283;22;19903;-86
2022/11/23 12:04:20;;;;;;;;;;;;;;;;;;6290991;22;19912;-86
2022/11/23 12:06:46;;;;;;;;;;;;;;;;;;6289328;22;19911;-87
2022/11/23 12:09:12;;;;;;;;;;;;;;;;;;6293420;22;19903;-86
2022/11/23 12:11:40;;;;;;;;;;;;;;;;;;6293705;22;19904;-84
2022/11/23 12:14:07;;;;;;;;;;;;;;;;;;6295401;22;19907;-90
2022/11/23 12:16:33;;;;;;;;;;;;;;;;;;6293415;22;19907;-89
2022/11/23 12:18:59;;;;;;;;;;;;;;;;;;6293536;22;19904;-94
2022/11/23 12:21:27;;;;;;;;;;;;;;;;;;6298113;22;19951;-92
2022/11/23 12:23:53;;;;;;;;;;;;;;;;;;6294484;22;19911;-89
2022/11/23 12:26:20;;;;;;;;;;;;;;;;;;6294585;22;19913;-87
2022/11/23 12:28:46;;;;;;;;;;;;;;;;;;6270322;22;19903;-90
2022/11/23 12:31:12;;;;;;;;;;;;;;;;;;6293046;22;19904;-89
2022/11/23 12:33:38;;;;;;;;;;;;;;;;;;6293844;22;19910;-86
2022/11/23 12:36:09;;;;;;;;;;;;;;;;;;6296033;22;19904;-91
2022/11/23 12:38:38;;;;;;;;;;;;;;;;;;6297175;22;19983;-88
2022/11/23 12:41:05;;;;;;;;;;;;;;;;;;6296041;22;19938;-88
2022/11/23 12:43:34;;;;;;;;;;;;;;;;;;6298142;22;19955;-91
2022/11/23 12:46:00;;;;;;;;;;;;;;;;;;6296075;22;19910;-86
2022/11/23 12:48:26;;;;;;;;;;;;;;;;;;6286616;22;19903;-85
2022/11/23 12:50:51;;;;;;;;;;;;;;;;;;6294297;22;19953;-86
2022/11/23 12:53:19;;;;;;;;;;;;;;;;;;6292660;22;19910;-85
2022/11/23 12:55:45;;;;;;;;;;;;;;;;;;6292211;22;19907;-86
2022/11/23 12:58:14;;;;;;;;;;;;;;;;;;6296462;22;19949;-85
2022/11/23 13:00:43;;;;;;;;;;;;;;;;;;6287974;22;19925;-85
2022/11/23 13:03:16;;;;;;;;;;;;;;;;;;6291253;22;19919;-85
2022/11/23 13:05:42;;;;;;;;;;;;;;;;;;6293115;22;19903;-90
2022/11/23 13:08:08;;;;;;;;;;;;;;;;;;6294527;22;19887;-87
2022/11/23 13:10:35;;;;;;;;;;;;;;;;;;6286456;22;19903;-86
2022/11/23 13:13:00;;;;;;;;;;;;;;;;;;6292749;22;20114;-85
2022/11/23 13:15:26;;;;;;;;;;;;;;;;;;6296739;22;19894;-87
2022/11/23 13:17:52;;;;;;;;;;;;;;;;;;6296836;22;20243;-85
2022/11/23 13:20:18;;;;;;;;;;;;;;;;;;6290281;22;19925;-86
2022/11/23 13:22:44;;;;;;;;;;;;;;;;;;6292929;22;19945;-87
2022/11/23 13:25:11;;;;;;;;;;;;;;;;;;6290075;22;19911;-86
2022/11/23 13:27:37;;;;;;;;;;;;;;;;;;6288984;22;19907;-86
2022/11/23 13:30:04;;;;;;;;;;;;;;;;;;6291109;22;20350;-85
2022/11/23 13:32:30;;;;;;;;;;;;;;;;;;6288860;22;19903;-85
2022/11/23 13:34:57;;;;;;;;;;;;;;;;;;6292251;22;19903;-86
2022/11/23 13:37:26;;;;;;;;;;;;;;;;;;6294799;22;19914;-86
2022/11/23 13:39:56;;;;;;;;;;;;;;;;;;6293588;22;19911;-85
2022/11/23 13:42:25;;;;;;;;;;;;;;;;;;6293133;22;19948;-89
2022/11/23 13:44:54;;;;;;;;;;;;;;;;;;6284265;22;19918;-90
2022/11/23 13:47:20;;;;;;;;;;;;;;;;;;6252174;22;19903;-92
2022/11/23 13:49:46;;;;;;;;;;;;;;;;;;6273567;22;19903;-91
2022/11/23 13:52:12;;;;;;;;;;;;;;;;;;6273822;22;19903;-92
2022/11/23 13:54:38;;;;;;;;;;;;;;;;;;6274158;22;19911;-90
2022/11/23 13:57:04;;;;;;;;;;;;;;;;;;6274596;22;19962;-91
2022/11/23 13:59:30;;;;;;;;;;;;;;;;;;6274597;22;19904;-93
2022/11/23 14:01:56;;;;;;;;;;;;;;;;;;6274521;22;19903;-92
2022/11/23 14:04:22;;;;;;;;;;;;;;;;;;6247304;22;19912;-93
2022/11/23 14:06:51;;;;;;;;;;;;;;;;;;6274487;22;20324;-92
2022/11/23 14:09:16;;;;;;;;;;;;;;;;;;6274811;22;19930;-89
2022/11/23 14:11:42;;;;;;;;;;;;;;;;;;6275962;22;19903;-88
2022/11/23 14:14:08;;;;;;;;;;;;;;;;;;6274471;22;19957;-90
2022/11/23 14:16:34;;;;;;;;;;;;;;;;;;6247266;22;20243;-92
2022/11/23 14:19:00;;;;;;;;;;;;;;;;;;6248795;22;19957;-92
2022/11/23 14:21:26;;;;;;;;;;;;;;;;;;6248087;22;19909;-92
2022/11/23 14:23:52;;;;;;;;;;;;;;;;;;6280292;22;19919;-92
2022/11/23 14:26:18;;;;;;;;;;;;;;;;;;6283178;22;19903;-92
2022/11/23 14:28:44;;;;;;;;;;;;;;;;;;6280801;22;19908;-91
2022/11/23 14:31:11;;;;;;;;;;;;;;;;;;6277182;22;19951;-94
2022/11/23 14:33:37;;;;;;;;;;;;;;;;;;6276921;22;19904;-90
2022/11/23 14:36:03;;;;;;;;;;;;;;;;;;6276730;22;20290;-92
2022/11/23 14:38:29;;;;;;;;;;;;;;;;;;6276698;22;20350;-90
2022/11/23 14:40:55;;;;;;;;;;;;;;;;;;6277059;22;19918;-92
2022/11/23 14:43:21;;;;;;;;;;;;;;;;;;6278042;22;19918;-91
2022/11/23 14:45:47;;;;;;;;;;;;;;;;;;6250713;22;19979;-90
2022/11/23 14:48:13;;;;;;;;;;;;;;;;;;6279969;22;19910;-91
2022/11/23 14:50:39;;;;;;;;;;;;;;;;;;6277497;22;19953;-91
2022/11/23 14:53:05;;;;;;;;;;;;;;;;;;6250119;22;19926;-92
2022/11/23 14:55:31;;;;;;;;;;;;;;;;;;6278308;22;19903;-89
2022/11/23 14:57:57;;;;;;;;;;;;;;;;;;6276852;22;19903;-88
2022/11/23 15:00:23;;;;;;;;;;;;;;;;;;6276756;22;20010;-92
2022/11/23 15:02:49;;;;;;;;;;;;;;;;;;6276850;22;20332;-92
2022/11/23 15:05:15;;;;;;;;;;;;;;;;;;6277232;22;19930;-91
2022/11/23 15:07:41;;;;;;;;;;;;;;;;;;6276554;22;19907;-93
2022/11/23 15:10:07;;;;;;;;;;;;;;;;;;6276915;22;20126;-92
2022/11/23 15:12:33;;;;;;;;;;;;;;;;;;6278707;22;19910;-87
2022/11/23 15:15:00;;;;;;;;;;;;;;;;;;6281440;22;19911;-91
2022/11/23 15:17:26;;;;;;;;;;;;;;;;;;6285976;22;19907;-94
2022/11/23 15:19:52;;;;;;;;;;;;;;;;;;6289764;22;19957;-93
2022/11/23 15:22:19;;;;;;;;;;;;;;;;;;6290260;22;19910;-87
2022/11/23 15:24:45;;;;;;;;;;;;;;;;;;6293442;22;19912;-93
2022/11/23 15:27:11;;;;;;;;;;;;;;;;;;6289320;22;19930;-94
2022/11/23 15:29:37;;;;;;;;;;;;;;;;;;6287119;22;19947;-92
2022/11/23 15:32:03;;;;;;;;;;;;;;;;;;6286484;22;19910;-92
2022/11/23 15:34:28;;;;;;;;;;;;;;;;;;6289118;22;19911;-94
2022/11/23 15:36:56;;;;;;;;;;;;;;;;;;6292659;22;20320;-94
2022/11/23 15:39:22;;;;;;;;;;;;;;;;;;6291497;22;19933;-94
2022/11/23 15:41:49;;;;;;;;;;;;;;;;;;6288701;22;19904;-93
2022/11/23 15:44:14;;;;;;;;;;;;;;;;;;6289803;22;19937;-95
2022/11/23 15:46:49;;;;;;;;;;;;;;;;;;6286928;22;20293;-92
2022/11/23 15:49:15;;;;;;;;;;;;;;;;;;6276028;22;19910;-92
2022/11/23 15:51:41;;;;;;;;;;;;;;;;;;6278478;22;19982;-94
2022/11/23 15:54:07;;;;;;;;;;;;;;;;;;6273909;22;19903;-91
2022/11/23 15:56:33;;;;;;;;;;;;;;;;;;6273237;22;19903;-92
2022/11/23 15:58:59;;;;;;;;;;;;;;;;;;6277361;22;19970;-91
2022/11/23 16:01:25;;;;;;;;;;;;;;;;;;6277982;22;19904;-93